Oakland, Nebraska
Current Conditions -  °F | °C
As of 8:28 AM on Sunday 21 Dec 2014 (Local Time) from KTQE Reporting Station
Haze Haze  
Wind Chill: 31°   Ceiling: 1000
Heat Index: 39°   Visibility: 6mi
Dew Point: 37°   Wind: 14mph
Humidity: 93%   Direction: 180°S
Pressure: 29.85"   Gusts: NA
Location:  41.84°N, 96.47°W
Report Text: KTQE 211428Z AUTO 18012KT 6SM BR OVC010 04/03 A2985 RMK AO2 T00390028
Loading
Personal Weather Stations






























Interactive Weather Map New forecast layout! Learn more

10-Day Weather Forecast

Advertisements
Track Severe Weather on mobile